Dutchess County Airport
KPOU : rendu visible

Aérodrome :











RETROUVEZ-NOUS SUR...

 
LOGIN :

S'inscrire | Disclaimer

   EN    FR    IT 

 









Légende :    VFR   VFR Marginal   IFR   IFR Intensif   IFR Très Intensif
Visi : 
Plafond : 
>= 8 km
>= 3000ft
5 à 8 km
1000 à 3000 ft
1500m à 5 km
500 à 1000 ft
800 à 1500m
200 à 500 ft
< 800m
< 200 ft
Symboles :   Orages  Brouillard  Fortes neiges  Fortes précipitations  Vent > 20 kt






- Altitude de l'aérodrome : 165 ft
- Code IATA : POU


KPOU - Dutchess County

DERNIER METAR :
  • 140553Z AUTO 00000KT 10SM CLR M07/M11 A3045 RMK AO2 SLP309 T10721111 11050 21072 51003

METARs EXPIRÉS :
  • 140453Z AUTO 00000KT 10SM FEW100 M07/M12 A3044 RMK AO2 SLP307 T10721117 400001094
  • 140353Z AUTO 00000KT 10SM FEW120 M07/M11 A3045 RMK AO2 SLP309 T10671111

TAF KPOU
Valide du 14 à 06h jusqu'au 15 à 06h UTC


140529Z 1406/1506 00000KT P6SM SCT100
FM141200 VRB03KT P6SM SCT020 BKN100
FM141700 20006KT P6SM BKN100
FM150000 VRB03KT P6SM SCT100



MET'MAP, la Météo Aéronautique d'un coup d'oeil ! - Copyright ORBIFLY Décembre 2007 - Disclaimer

ORBIFLY MET'MAP TEAM :

Programmation & Développement : Alexandra Zaïnal
Conception & Développement : Baudouin d'Aumeries
Co-Programmation & Développement : Marc-Olivier Méhu
Soutien technique & logistique : Manuel Goepfert

Contact : metmap@orbifly.com




SOURCES & CREDITS :

   NOAA       Earth
Advisory